This is the latest recevied weather packets stored in our database for station/object AG1T-20. If no packets are shown the sender has not sent any weather packets the latest 10 day(s).
| Time | Temp. | Humidity | Pressure | Rain* | Wind** | Luminosity | Snow |
|---|---|---|---|---|---|---|---|
| 1777504204 | 12.78° C | 42% | 1021.3 hPa | 0 mm | - | 227 W/m² | - |
| 1777503604 | 13.33° C | 42% | 1021.3 hPa | 0 mm | - | 355 W/m² | - |
| 1777503004 | 12.78° C | 43% | 1021.9 hPa | 0 mm | - | 335 W/m² | - |
| 1777502404 | 12.78° C | 46% | 1021.9 hPa | 0 mm | - | 334 W/m² | - |
| 1777501804 | 12.78° C | 46% | 1021.9 hPa | 0 mm | - | 404 W/m² | - |
| 1777501204 | 12.78° C | 43% | 1021.9 hPa | 0 mm | - | 442 W/m² | - |
| 1777500605 | 12.78° C | 46% | 1021.9 hPa | 0 mm | - | 531 W/m² | - |
| 1777500005 | 12.22° C | 44% | 1021.9 hPa | 0 mm | - | 389 W/m² | - |
| 1777499405 | 11.67° C | 46% | 1022 hPa | 0 mm | - | 311 W/m² | - |
| 1777498805 | 11.67° C | 47% | 1022 hPa | 0 mm | - | 308 W/m² | - |
| 1777498204 | 11.11° C | 52% | 1022 hPa | 0 mm | - | 176 W/m² | - |
| 1777497604 | 11.11° C | 46% | 1022 hPa | 0 mm | - | 220 W/m² | - |
| 1777497004 | 12.22° C | 46% | 1022 hPa | 0 mm | - | 284 W/m² | - |
| 1777496405 | 13.33° C | 42% | 1022 hPa | 0 mm | - | 329 W/m² | - |
| 1777495805 | 12.78° C | 53% | 1022 hPa | 0 mm | - | 640 W/m² | - |
| 1777495205 | 12.22° C | 49% | 1022 hPa | 0 mm | - | 317 W/m² | - |
| 1777494604 | 12.22° C | 48% | 1022 hPa | 0 mm | - | 332 W/m² | - |
| 1777494004 | 11.67° C | 52% | 1022 hPa | 0 mm | - | 444 W/m² | - |
| 1777493404 | 12.22° C | 45% | 1022 hPa | 0 mm | - | 537 W/m² | - |
| 1777492804 | 11.67° C | 44% | 1022 hPa | 0 mm | - | 341 W/m² | - |
| 1777492204 | 11.67° C | 40% | 1021.7 hPa | 0 mm | - | 179 W/m² | - |
| 1777491604 | 12.78° C | 34% | 1021.7 hPa | 0 mm | - | 201 W/m² | - |
| 1777491004 | 14.44° C | 36% | 1021.7 hPa | 0 mm | - | 488 W/m² | - |
| 1777490404 | 13.33° C | 31% | 1021.7 hPa | 0 mm | - | 436 W/m² | - |
| 1777489804 | 15° C | 29% | 1021.7 hPa | 0 mm | - | 897 W/m² | - |
* Rain latest hour (hover to see other rain measurements)
** Current wind speed in m/s (hover to see current wind gust speed)